createdAt,value
2018-07-26T00:03:37.126Z,86.93
2018-07-26T00:08:20.717Z,87.85
2018-07-26T00:13:04.242Z,86.60
2018-07-26T00:17:47.756Z,86.82
2018-07-26T00:22:31.526Z,87.36
2018-07-26T00:27:14.970Z,88.30
2018-07-26T00:31:58.523Z,87.78
2018-07-26T00:36:42.080Z,88.29
2018-07-26T00:41:26.793Z,88.71
2018-07-26T00:46:10.243Z,88.39
2018-07-26T00:50:53.878Z,89.55
2018-07-26T00:55:37.325Z,89.93
2018-07-26T01:00:21.931Z,87.99
2018-07-26T01:05:05.400Z,88.79
2018-07-26T01:09:49.021Z,88.80
2018-07-26T01:14:32.764Z,87.73
2018-07-26T01:19:16.219Z,87.49
2018-07-26T01:23:59.928Z,88.79
2018-07-26T01:28:43.472Z,86.99
2018-07-26T01:33:26.972Z,87.50
2018-07-26T01:38:10.474Z,87.97
2018-07-26T01:43:05.873Z,87.08
2018-07-26T01:47:49.464Z,89.04
2018-07-26T01:52:33.141Z,87.87
2018-07-26T01:57:16.809Z,88.19
2018-07-26T02:02:00.387Z,88.66
2018-07-26T02:06:43.901Z,87.94
2018-07-26T02:11:27.458Z,87.79
2018-07-26T02:16:11.048Z,87.68
2018-07-26T02:20:57.976Z,87.06
2018-07-26T02:25:41.458Z,86.51
2018-07-26T02:30:24.936Z,87.88
2018-07-26T02:35:08.652Z,87.66
2018-07-26T02:39:52.256Z,86.79
2018-07-26T02:44:35.729Z,87.36
2018-07-26T02:49:19.258Z,88.25
2018-07-26T02:54:02.881Z,87.99
2018-07-26T02:58:46.390Z,87.49
2018-07-26T03:03:31.068Z,88.19
2018-07-26T03:08:14.600Z,88.16
2018-07-26T03:12:58.364Z,87.83
2018-07-26T03:17:41.934Z,87.75
2018-07-26T03:22:26.410Z,89.33
2018-07-26T03:27:09.898Z,88.88
2018-07-26T03:31:56.826Z,88.02
2018-07-26T03:36:40.434Z,88.48
2018-07-26T03:41:23.970Z,88.25
2018-07-26T03:46:08.366Z,88.74
2018-07-26T03:50:52.226Z,88.77
2018-07-26T03:55:35.620Z,87.88
2018-07-26T04:00:19.181Z,88.30
2018-07-26T04:05:02.731Z,88.19
2018-07-26T04:09:46.177Z,87.36
2018-07-26T04:14:29.761Z,86.75
2018-07-26T04:19:13.369Z,87.38
2018-07-26T04:23:57.129Z,87.77
2018-07-26T04:28:40.633Z,87.92
2018-07-26T04:33:24.081Z,88.62
2018-07-26T04:38:07.561Z,88.28
2018-07-26T04:42:51.272Z,87.59
2018-07-26T04:47:34.846Z,87.37
2018-07-26T04:52:21.929Z,87.80
2018-07-26T04:58:34.866Z,86.40
2018-07-26T05:03:19.590Z,87.70
2018-07-26T05:08:03.046Z,86.30
2018-07-26T05:12:50.852Z,87.73
2018-07-26T05:17:34.440Z,86.94
2018-07-26T05:22:21.260Z,87.74
2018-07-26T05:27:05.221Z,86.92
2018-07-26T05:31:52.004Z,88.45
2018-07-26T05:36:35.461Z,87.37
2018-07-26T05:41:19.955Z,87.01
2018-07-26T05:46:03.330Z,87.33
2018-07-26T05:50:47.071Z,87.49
2018-07-26T05:55:30.533Z,86.15
2018-07-26T06:00:17.930Z,86.35
2018-07-26T06:05:01.385Z,86.34
2018-07-26T06:09:46.628Z,86.69
2018-07-26T06:14:30.097Z,86.48
2018-07-26T06:19:16.936Z,86.43
2018-07-26T06:24:01.538Z,85.92
2018-07-26T06:28:44.937Z,86.04
2018-07-26T06:33:28.575Z,85.54
2018-07-26T06:38:11.986Z,85.23
2018-07-26T06:42:56.678Z,85.33
2018-07-26T06:47:40.784Z,85.01
2018-07-26T06:52:27.557Z,85.11
2018-07-26T06:57:11.135Z,85.15
2018-07-26T07:01:54.586Z,82.89
2018-07-26T07:06:38.040Z,84.26
2018-07-26T07:11:22.766Z,83.22
2018-07-26T07:16:06.449Z,83.10
2018-07-26T07:20:53.630Z,84.21
2018-07-26T07:25:37.168Z,84.01
2018-07-26T07:30:20.948Z,82.45
2018-07-26T07:35:04.518Z,83.02
2018-07-26T07:39:48.164Z,82.66
2018-07-26T07:44:31.725Z,80.84
2018-07-26T07:49:15.502Z,80.45
2018-07-26T07:53:58.992Z,80.00
2018-07-26T07:58:42.514Z,80.03
2018-07-26T08:03:29.642Z,79.66
2018-07-26T08:08:13.119Z,79.78
2018-07-26T08:12:57.746Z,78.65
2018-07-26T08:17:41.257Z,79.55
2018-07-26T08:22:25.992Z,76.71
2018-07-26T08:27:09.427Z,77.21
2018-07-26T08:31:53.209Z,77.85
2018-07-26T08:36:36.690Z,77.96
2018-07-26T08:41:21.213Z,76.32
2018-07-26T08:46:04.694Z,74.82
2018-07-26T08:50:48.463Z,74.42
2018-07-26T08:55:32.055Z,74.64
2018-07-26T09:00:19.074Z,75.19
2018-07-26T09:05:02.640Z,74.44
2018-07-26T09:09:46.305Z,71.73
2018-07-26T09:14:29.624Z,71.44
2018-07-26T09:19:13.329Z,71.60
2018-07-26T09:23:56.849Z,72.59
2018-07-26T09:28:40.563Z,72.17
2018-07-26T09:33:24.179Z,70.87
2018-07-26T09:38:07.816Z,71.38
2018-07-26T09:42:51.952Z,71.53
2018-07-26T09:47:35.492Z,71.91
2018-07-26T09:52:19.142Z,68.92
2018-07-26T09:57:04.436Z,70.34
2018-07-26T10:01:47.809Z,71.27
2018-07-26T10:06:31.381Z,70.96
2018-07-26T10:11:16.512Z,70.02
2018-07-26T10:16:00.046Z,75.12
2018-07-26T10:20:43.858Z,68.09
2018-07-26T10:25:27.316Z,67.64
2018-07-26T10:30:11.781Z,67.59
2018-07-26T10:34:55.072Z,67.13
2018-07-26T10:39:38.706Z,68.04
2018-07-26T10:44:22.232Z,69.91
2018-07-26T10:49:09.256Z,64.87
2018-07-26T10:53:52.882Z,65.77
2018-07-26T10:58:36.708Z,64.00
2018-07-26T11:03:20.757Z,65.65
2018-07-26T11:08:04.282Z,66.32
2018-07-26T11:12:47.894Z,70.61
2018-07-26T11:17:31.502Z,68.54
2018-07-26T11:22:15.015Z,69.79
2018-07-26T11:26:58.828Z,63.91
2018-07-26T11:31:42.712Z,66.54
2018-07-26T11:36:26.402Z,66.04
2018-07-26T11:41:09.908Z,65.10
2018-07-26T11:45:53.549Z,64.27
2018-07-26T11:50:40.826Z,64.51
2018-07-26T11:55:24.352Z,65.27
2018-07-26T12:00:11.135Z,63.22
2018-07-26T12:04:54.639Z,67.60
2018-07-26T12:09:41.282Z,67.30
2018-07-26T12:14:24.844Z,60.84
2018-07-26T12:19:11.567Z,61.79
2018-07-26T12:23:55.145Z,61.45
2018-07-26T12:28:38.762Z,59.64
2018-07-26T12:33:23.104Z,60.21
2018-07-26T12:38:24.494Z,59.16
2018-07-26T12:43:08.011Z,59.99
2018-07-26T12:47:51.666Z,66.14
2018-07-26T12:52:35.297Z,64.57
2018-07-26T12:57:19.620Z,64.63
2018-07-26T13:02:03.286Z,63.42
2018-07-26T13:06:46.728Z,61.60
2018-07-26T13:11:30.320Z,60.37
2018-07-26T13:16:13.829Z,62.27
2018-07-26T13:20:58.879Z,63.11
2018-07-26T13:25:42.495Z,62.55
2018-07-26T13:30:26.325Z,62.45
2018-07-26T13:35:09.837Z,63.18
2018-07-26T13:39:53.583Z,63.05
2018-07-26T13:44:37.046Z,63.22
2018-07-26T13:49:20.861Z,65.89
2018-07-26T13:54:04.339Z,63.00
2018-07-26T13:58:47.774Z,64.47
2018-07-26T14:03:31.428Z,64.49
2018-07-26T14:14:06.560Z,60.20
2018-07-26T14:18:51.107Z,61.39
2018-07-26T14:23:38.413Z,65.33
2018-07-26T14:28:22.324Z,67.42
2018-07-26T14:33:07.722Z,68.63
2018-07-26T14:37:52.440Z,68.29
2018-07-26T14:42:35.965Z,66.63
2018-07-26T14:47:19.515Z,66.44
2018-07-26T14:52:06.239Z,65.85
2018-07-26T14:56:50.158Z,65.58
2018-07-26T15:01:35.006Z,66.74
2018-07-26T15:06:19.297Z,66.42
2018-07-26T15:11:07.709Z,66.82
2018-07-26T15:15:51.104Z,67.79
2018-07-26T15:20:37.970Z,68.21
2018-07-26T15:25:25.216Z,66.56
2018-07-26T15:30:08.932Z,65.66
2018-07-26T15:34:53.917Z,65.88
2018-07-26T15:39:39.472Z,65.01
2018-07-26T15:44:23.069Z,65.90
2018-07-26T15:49:08.319Z,67.34
2018-07-26T15:53:51.869Z,68.21
2018-07-26T15:58:35.728Z,68.22
2018-07-26T16:03:20.045Z,69.07
2018-07-26T16:08:28.129Z,73.54
2018-07-26T16:13:16.777Z,75.27
2018-07-26T16:18:02.866Z,76.04
2018-07-26T16:22:48.138Z,78.17
2018-07-26T16:27:39.969Z,78.75
2018-07-26T16:32:25.548Z,78.91
2018-07-26T16:37:12.107Z,79.26
2018-07-26T16:41:56.464Z,79.49
2018-07-26T16:46:43.737Z,79.42
2018-07-26T16:51:28.907Z,83.13
2018-07-26T16:56:14.615Z,80.89
2018-07-26T17:01:02.733Z,81.09
2018-07-26T17:05:47.337Z,81.59
2018-07-26T17:10:36.146Z,81.67
2018-07-26T17:15:59.596Z,82.61
2018-07-26T17:20:52.796Z,81.93
2018-07-26T17:25:38.722Z,82.61
2018-07-26T17:30:23.764Z,82.26
2018-07-26T17:35:17.971Z,81.28
2018-07-26T17:40:01.972Z,81.19
2018-07-26T17:44:45.579Z,82.38
2018-07-26T17:49:29.297Z,83.36
2018-07-26T17:54:15.202Z,82.65
2018-07-26T17:59:03.915Z,84.24
2018-07-26T18:03:47.662Z,82.43
2018-07-26T18:08:32.513Z,85.36
2018-07-26T18:13:16.281Z,84.55
2018-07-26T18:18:00.246Z,84.07
2018-07-26T18:22:44.160Z,85.74
2018-07-26T18:27:28.143Z,83.61
2018-07-26T18:32:11.737Z,84.79
2018-07-26T18:36:55.435Z,82.67
2018-07-26T18:41:42.140Z,83.04
2018-07-26T18:46:27.853Z,82.88
2018-07-26T18:51:11.647Z,82.90
2018-07-26T18:55:55.387Z,81.85
2018-07-26T19:00:39.112Z,84.07
2018-07-26T19:05:22.758Z,82.81
2018-07-26T19:10:10.459Z,83.66
2018-07-26T19:14:54.263Z,81.61
2018-07-26T19:19:38.312Z,82.58
2018-07-26T19:24:21.989Z,81.92
2018-07-26T19:29:06.825Z,82.17
2018-07-26T19:33:50.489Z,82.32
2018-07-26T19:38:34.135Z,81.81
2018-07-26T19:43:17.568Z,82.63
2018-07-26T19:48:01.286Z,84.91
2018-07-26T21:53:21.282Z,82.27
2018-07-26T21:58:06.031Z,82.73
2018-07-26T22:02:49.670Z,81.14
2018-07-26T22:07:34.497Z,82.45
2018-07-26T22:12:18.081Z,82.07
2018-07-26T22:17:02.924Z,83.02
2018-07-26T22:21:46.430Z,82.38
2018-07-26T22:26:30.085Z,81.87
2018-07-26T22:31:13.886Z,82.57
2018-07-26T22:35:57.574Z,83.19
2018-07-26T22:40:41.363Z,81.23
2018-07-26T22:45:25.065Z,80.55
2018-07-26T22:50:08.734Z,80.84
2018-07-26T22:54:52.314Z,80.32
2018-07-26T22:59:37.327Z,81.07
2018-07-26T23:04:21.013Z,81.37
2018-07-26T23:09:07.645Z,82.78
2018-07-26T23:14:06.102Z,80.84
2018-07-26T23:18:49.833Z,81.11
2018-07-26T23:23:33.508Z,80.53
2018-07-26T23:28:20.654Z,83.00
2018-07-26T23:33:04.113Z,80.80
2018-07-26T23:37:47.772Z,80.70
2018-07-26T23:42:31.309Z,81.13
2018-07-26T23:47:16.105Z,81.21
2018-07-26T23:51:59.797Z,80.84
2018-07-26T23:56:43.356Z,82.49
